createdAt,value
2019-04-05T00:00:58.799Z,101544.38
2019-04-05T00:02:39.465Z,101546.66
2019-04-05T00:04:21.072Z,101546.37
2019-04-05T00:06:02.640Z,101546.37
2019-04-05T00:07:46.313Z,101537.78
2019-04-05T00:09:26.934Z,101535.55
2019-04-05T00:11:14.186Z,101538.80
2019-04-05T00:12:57.464Z,101541.61
2019-04-05T04:00:50.625Z,101687.19
2019-04-05T04:02:29.224Z,101685.77
2019-04-05T04:04:12.706Z,101690.80
2019-04-05T04:05:52.173Z,101688.22
2019-04-05T04:07:33.832Z,101690.95
2019-04-05T04:09:15.432Z,101694.84
2019-04-05T04:10:54.882Z,101694.18
2019-04-05T04:12:36.320Z,101697.63
2019-04-05T04:14:16.427Z,101696.59
2019-04-05T04:15:55.956Z,101697.20
2019-04-05T04:17:35.766Z,101703.86
2019-04-05T04:19:16.381Z,101690.50
2019-04-05T04:20:59.916Z,101693.38
2019-04-05T04:22:43.468Z,101698.33
2019-04-05T04:24:25.184Z,101700.19
2019-04-05T04:26:06.060Z,101694.84
2019-04-05T04:27:47.432Z,101698.45
2019-04-05T04:29:29.795Z,101706.95
2019-04-05T04:31:08.902Z,101703.50
2019-04-05T04:32:49.005Z,101704.82
2019-04-05T04:34:37.365Z,101707.97
2019-04-05T04:36:16.460Z,101704.36
2019-04-05T04:37:56.946Z,101698.67
2019-04-05T04:39:35.748Z,101702.23
2019-04-05T04:41:17.224Z,101697.28
2019-04-05T04:42:56.524Z,101694.16
2019-04-05T04:44:35.981Z,101692.23
2019-04-05T04:46:16.290Z,101694.42
2019-04-05T04:47:53.453Z,101694.03
2019-04-05T04:49:31.263Z,101699.81
2019-04-05T04:51:10.179Z,101696.69
2019-04-05T04:52:51.338Z,101694.41
2019-04-05T04:54:32.432Z,101689.91
2019-04-05T04:56:10.926Z,101688.55
2019-04-05T04:57:48.557Z,101687.83
2019-04-05T04:59:28.025Z,101686.45
2019-04-05T05:01:10.168Z,101686.31
2019-04-05T05:02:49.649Z,101680.06
2019-04-05T05:04:27.503Z,101684.86
2019-04-05T05:06:06.528Z,101685.45
2019-04-05T05:07:48.107Z,101688.93
2019-04-05T05:09:28.142Z,101686.67
2019-04-05T05:11:14.332Z,101689.20
2019-04-05T05:12:47.921Z,101685.98
2019-04-05T05:14:27.413Z,101678.36
2019-04-05T05:16:06.995Z,101676.40
2019-04-05T05:17:57.713Z,101679.80
2019-04-05T05:19:24.231Z,101671.16
2019-04-05T05:21:04.057Z,101676.77
2019-04-05T05:22:43.883Z,101677.81
2019-04-05T05:24:23.005Z,101679.80
2019-04-05T05:26:01.118Z,101671.11
2019-04-05T05:27:38.606Z,101674.40
2019-04-05T05:29:16.567Z,101675.90
2019-04-05T05:30:57.053Z,101673.48
2019-04-05T05:32:35.630Z,101671.89
2019-04-05T05:34:14.690Z,101673.78
2019-04-05T05:35:54.579Z,101671.65
2019-04-05T05:37:32.992Z,101678.81
2019-04-05T05:39:12.890Z,101676.77
2019-04-05T05:40:56.971Z,101677.22
2019-04-05T05:42:34.817Z,101674.61
2019-04-05T05:44:13.378Z,101673.91
2019-04-05T05:45:51.211Z,101675.77
2019-04-05T05:47:29.459Z,101671.84
2019-04-05T05:49:06.756Z,101670.97
2019-04-05T05:50:46.373Z,101670.11
2019-04-05T05:52:28.441Z,101671.05
2019-04-05T05:54:07.238Z,101672.47
2019-04-05T05:55:45.831Z,101669.81
2019-04-05T05:57:24.255Z,101669.43
2019-04-05T05:59:04.802Z,101671.22
2019-04-05T06:00:44.648Z,101665.44
2019-04-05T06:02:24.462Z,101666.77
2019-04-05T06:04:03.454Z,101668.54
2019-04-05T06:05:42.254Z,101670.77
2019-04-05T06:07:26.023Z,101661.88
2019-04-05T06:09:05.436Z,101666.75
2019-04-05T06:10:45.680Z,101665.83
2019-04-05T06:12:22.873Z,101666.66
2019-04-05T06:14:03.878Z,101666.64
2019-04-05T06:15:41.719Z,101671.93
2019-04-05T06:17:22.864Z,101668.72
2019-04-05T06:19:00.320Z,101662.86
2019-04-05T06:20:38.644Z,101661.47
2019-04-05T06:22:17.882Z,101661.38
2019-04-05T06:23:55.972Z,101664.83
2019-04-05T06:25:34.460Z,101661.17
2019-04-05T06:27:14.105Z,101668.66
2019-04-05T06:28:52.118Z,101667.66
2019-04-05T06:30:32.630Z,101666.42
2019-04-05T06:32:11.283Z,101671.13
2019-04-05T06:33:51.793Z,101665.55
2019-04-05T06:35:30.165Z,101660.98
2019-04-05T06:37:09.701Z,101659.43
2019-04-05T06:38:49.869Z,101655.72
2019-04-05T06:40:40.017Z,101657.63
2019-04-05T06:42:09.562Z,101649.08
2019-04-05T06:43:51.621Z,101651.04
2019-04-05T06:45:30.882Z,101653.41
2019-04-05T06:47:09.137Z,101660.20
2019-04-05T06:48:49.168Z,101655.96
2019-04-05T06:50:26.982Z,101659.03
2019-04-05T06:52:05.173Z,101664.16
2019-04-05T06:53:46.063Z,101664.05
2019-04-05T06:55:24.576Z,101658.80
2019-04-05T06:57:02.932Z,101662.80
2019-04-05T06:58:41.697Z,101659.30
2019-04-05T07:00:22.192Z,101667.70
2019-04-05T07:02:04.633Z,101654.98
2019-04-05T07:03:44.057Z,101658.36
2019-04-05T07:05:22.819Z,101656.83
2019-04-05T07:07:01.689Z,101659.77
2019-04-05T07:08:39.327Z,101657.19
2019-04-05T07:10:18.144Z,101659.97
2019-04-05T07:11:55.343Z,101659.19
2019-04-05T07:13:33.653Z,101663.45
2019-04-05T07:15:11.032Z,101661.69
2019-04-05T07:17:00.812Z,101662.34
2019-04-05T07:18:40.145Z,101666.80
2019-04-05T07:20:17.838Z,101659.42
2019-04-05T07:21:56.758Z,101660.80
2019-04-05T07:23:36.054Z,101663.59
2019-04-05T07:25:13.985Z,101663.16
2019-04-05T07:26:53.731Z,101663.05
2019-04-05T07:28:33.645Z,101662.03
2019-04-05T07:30:17.475Z,101656.62
2019-04-05T07:31:57.564Z,101659.03
2019-04-05T07:33:35.757Z,101661.86
2019-04-05T07:35:14.777Z,101660.96
2019-04-05T07:36:58.186Z,101659.98
2019-04-05T07:38:39.921Z,101662.43
2019-04-05T07:40:22.207Z,101660.13
2019-04-05T07:42:02.763Z,101657.79
2019-04-05T07:43:46.953Z,101652.48
2019-04-05T07:45:26.477Z,101655.14
2019-04-05T07:47:08.306Z,101654.59
2019-04-05T07:49:01.292Z,101651.97
2019-04-05T07:50:42.910Z,101643.91
2019-04-05T07:52:21.327Z,101647.05
2019-04-05T07:54:00.100Z,101642.75
2019-04-05T07:55:39.568Z,101643.86
2019-04-05T07:57:18.214Z,101640.98
2019-04-05T07:59:13.964Z,101640.44
2019-04-05T08:00:57.453Z,101642.27
2019-04-05T08:02:38.111Z,101640.80
2019-04-05T08:04:18.117Z,101643.10
2019-04-05T08:05:57.541Z,101634.81
2019-04-05T08:07:43.303Z,101633.33
2019-04-05T08:09:24.494Z,101642.73
2019-04-05T08:11:02.568Z,101634.23
2019-04-05T08:12:46.541Z,101636.56
2019-04-05T08:14:28.452Z,101632.94
2019-04-05T08:16:08.332Z,101629.70
2019-04-05T08:17:47.351Z,101621.89
2019-04-05T08:19:27.591Z,101626.39
2019-04-05T08:21:12.482Z,101621.30
2019-04-05T08:22:50.430Z,101615.17
2019-04-05T08:24:30.648Z,101613.77
2019-04-05T08:26:11.001Z,101608.59
2019-04-05T08:27:49.618Z,101609.42
2019-04-05T08:29:29.245Z,101609.14
2019-04-05T08:31:10.884Z,101605.34
2019-04-05T08:32:51.801Z,101610.98
2019-04-05T08:34:32.383Z,101603.63
2019-04-05T08:36:11.748Z,101600.28
2019-04-05T08:37:50.300Z,101610.80
2019-04-05T08:39:29.463Z,101601.69
2019-04-05T08:41:06.741Z,101594.16
2019-04-05T08:42:47.503Z,101591.55
2019-04-05T08:44:26.761Z,101601.83
2019-04-05T08:46:07.721Z,101612.77
2019-04-05T08:47:46.453Z,101605.40
2019-04-05T08:49:26.034Z,101610.20
2019-04-05T08:51:04.671Z,101601.90
2019-04-05T08:52:45.291Z,101603.25
2019-04-05T08:54:32.447Z,101593.14
2019-04-05T08:56:07.255Z,101593.52
2019-04-05T08:57:49.301Z,101598.39
2019-04-05T08:59:31.456Z,101588.02
2019-04-05T09:01:14.994Z,101588.15
2019-04-05T09:02:58.880Z,101596.64
2019-04-05T09:04:36.744Z,101594.27
2019-04-05T09:06:19.047Z,101586.09
2019-04-05T09:08:00.067Z,101583.57
2019-04-05T09:09:49.160Z,101573.17
2019-04-05T09:11:30.059Z,101569.34
2019-04-05T09:13:07.824Z,101574.88
2019-04-05T09:14:46.629Z,101582.55
2019-04-05T09:16:25.692Z,101579.33
2019-04-05T09:18:07.401Z,101574.23
2019-04-05T09:19:46.659Z,101578.38
2019-04-05T09:21:25.722Z,101579.27
2019-04-05T09:23:04.202Z,101578.66
2019-04-05T09:24:45.730Z,101580.34
2019-04-05T09:26:27.802Z,101578.14
2019-04-05T09:28:09.242Z,101569.19
2019-04-05T09:29:54.880Z,101562.67
2019-04-05T09:31:37.751Z,101568.04
2019-04-05T09:33:23.524Z,101562.58
2019-04-05T09:35:02.018Z,101561.71
2019-04-05T09:36:43.626Z,101560.76
2019-04-05T09:38:22.580Z,101551.25
2019-04-05T09:40:01.682Z,101561.09
2019-04-05T09:41:41.329Z,101553.36
2019-04-05T09:43:19.374Z,101557.41
2019-04-05T09:44:59.730Z,101566.66
2019-04-05T09:46:48.028Z,101565.01
2019-04-05T09:50:23.044Z,101564.07
2019-04-05T09:52:07.668Z,101570.50
2019-04-05T09:53:59.485Z,101570.44
2019-04-05T09:55:40.111Z,101570.97
2019-04-05T09:57:19.823Z,101566.97
2019-04-05T09:58:57.116Z,101559.44
2019-04-05T10:00:36.470Z,101555.10
2019-04-05T10:02:15.701Z,101555.81
2019-04-05T10:03:54.049Z,101564.12
2019-04-05T10:05:37.251Z,101557.44
2019-04-05T10:07:17.984Z,101556.27
2019-04-05T10:08:55.273Z,101559.37
2019-04-05T10:10:34.228Z,101551.53
2019-04-05T10:12:14.847Z,101551.48
2019-04-05T10:13:54.839Z,101552.52
2019-04-05T10:15:33.925Z,101552.66
2019-04-05T10:17:14.304Z,101548.42
2019-04-05T10:18:51.624Z,101541.72
2019-04-05T10:20:32.583Z,101549.01
2019-04-05T10:22:11.217Z,101551.15
2019-04-05T10:23:49.406Z,101552.16
2019-04-05T10:25:28.260Z,101559.78
2019-04-05T10:27:10.302Z,101557.24
2019-04-05T10:28:50.533Z,101560.45
2019-04-05T10:30:35.258Z,101559.34
2019-04-05T10:32:14.278Z,101553.19
2019-04-05T10:33:55.650Z,101551.82
2019-04-05T10:35:34.194Z,101552.77
2019-04-05T10:37:14.368Z,101550.48
2019-04-05T10:38:54.331Z,101539.22
2019-04-05T10:40:38.026Z,101543.92
2019-04-05T10:42:35.858Z,101550.68
2019-04-05T10:44:17.062Z,101542.88
2019-04-05T10:46:00.899Z,101535.57
2019-04-05T10:47:38.573Z,101548.39
2019-04-05T10:49:18.540Z,101553.95
2019-04-05T10:50:57.376Z,101549.96
2019-04-05T10:52:35.396Z,101540.11
2019-04-05T10:54:12.782Z,101538.36
2019-04-05T17:57:19.239Z,101611.30
2019-04-05T17:58:57.102Z,101614.81
2019-04-05T18:00:37.329Z,101616.96
2019-04-05T18:02:19.203Z,101611.11
2019-04-05T18:04:00.524Z,101615.46
2019-04-05T18:05:38.968Z,101615.05
2019-04-05T18:07:20.787Z,101613.11
2019-04-05T18:09:00.531Z,101615.36
2019-04-05T18:10:39.997Z,101621.07
2019-04-05T18:12:19.833Z,101620.54
2019-04-05T18:14:02.871Z,101619.59
2019-04-05T18:15:52.282Z,101622.17
2019-04-05T18:17:31.932Z,101618.07
2019-04-05T18:19:16.794Z,101616.23
2019-04-05T18:20:59.141Z,101621.41
2019-04-05T18:22:41.174Z,101622.61
2019-04-05T18:24:21.890Z,101625.23
2019-04-05T18:26:03.760Z,101622.94
2019-04-05T18:27:45.602Z,101621.61
2019-04-05T18:29:28.976Z,101629.09
2019-04-05T18:31:12.081Z,101622.36
2019-04-05T18:32:51.357Z,101625.42
2019-04-05T18:34:30.416Z,101625.80
2019-04-05T18:36:12.339Z,101624.47
2019-04-05T18:37:50.007Z,101620.02
2019-04-05T18:39:27.676Z,101620.39
2019-04-05T18:41:07.956Z,101624.33
2019-04-05T18:42:51.680Z,101628.73
2019-04-05T18:44:33.556Z,101628.73
2019-04-05T18:46:18.331Z,101624.15
2019-04-05T18:48:00.534Z,101626.30
2019-04-05T18:49:39.611Z,101624.00
2019-04-05T18:51:22.462Z,101630.14
2019-04-05T18:53:02.996Z,101626.47
2019-04-05T18:54:46.291Z,101622.84
2019-04-05T18:56:26.424Z,101629.48
2019-04-05T18:58:09.969Z,101626.32
2019-04-05T18:59:52.724Z,101631.58
2019-04-05T19:01:35.251Z,101632.76
2019-04-05T19:03:15.219Z,101628.36
2019-04-05T19:04:54.772Z,101628.61
2019-04-05T19:06:35.250Z,101633.36
2019-04-05T19:08:14.221Z,101634.33
2019-04-05T19:09:56.519Z,101633.98
2019-04-05T19:11:49.600Z,101641.03
2019-04-05T19:13:33.742Z,101635.30
2019-04-05T19:15:16.329Z,101636.59
2019-04-05T19:16:55.101Z,101641.03
2019-04-05T19:18:35.220Z,101643.64
2019-04-05T19:20:21.439Z,101644.90
2019-04-05T19:22:01.723Z,101641.17
2019-04-05T19:23:50.219Z,101643.81
2019-04-05T19:25:21.337Z,101634.47
2019-04-05T19:27:03.020Z,101647.69
2019-04-05T19:28:44.073Z,101643.65
2019-04-05T19:49:45.300Z,101654.69
2019-04-05T19:51:28.058Z,101651.91
2019-04-05T19:53:13.067Z,101654.50
2019-04-05T19:54:50.667Z,101647.81
2019-04-05T19:56:29.785Z,101652.07
2019-04-05T19:58:13.620Z,101656.81
2019-04-05T19:59:52.426Z,101654.05
2019-04-05T20:01:31.526Z,101658.02
2019-04-05T20:03:11.667Z,101654.91
2019-04-05T20:04:52.276Z,101654.84
2019-04-05T20:06:32.720Z,101653.92
2019-04-05T20:08:15.451Z,101651.20
2019-04-05T20:09:54.530Z,101652.86
2019-04-05T20:11:34.384Z,101653.25
2019-04-05T20:13:14.018Z,101654.53
2019-04-05T20:14:54.513Z,101662.95
2019-04-05T20:16:32.750Z,101658.58
2019-04-05T20:18:16.795Z,101656.25
2019-04-05T20:20:00.206Z,101657.05
2019-04-05T20:21:38.357Z,101656.13
2019-04-05T20:23:19.890Z,101661.28
2019-04-05T20:25:02.031Z,101662.05
2019-04-05T20:26:45.515Z,101669.46
2019-04-05T20:28:25.628Z,101666.48
2019-04-05T20:30:04.308Z,101666.02
2019-04-05T20:31:43.452Z,101669.12
2019-04-05T20:33:23.917Z,101666.48
2019-04-05T20:35:04.210Z,101667.27
2019-04-05T20:36:44.906Z,101666.36
2019-04-05T20:38:25.141Z,101673.58
2019-04-05T20:40:03.257Z,101670.47
2019-04-05T20:41:42.451Z,101669.08
2019-04-05T20:43:25.356Z,101671.73
2019-04-05T20:45:04.855Z,101670.73
2019-04-05T20:46:44.634Z,101675.51
2019-04-05T20:48:27.949Z,101673.63
2019-04-05T20:50:08.073Z,101674.51
2019-04-05T20:51:49.550Z,101671.05
2019-04-05T20:53:29.668Z,101671.91
2019-04-05T20:55:11.038Z,101672.70
2019-04-05T20:56:50.829Z,101676.55
2019-04-05T20:58:28.714Z,101674.82
2019-04-05T21:00:10.440Z,101676.00
2019-04-05T21:01:48.259Z,101675.53
2019-04-05T21:03:28.437Z,101678.19
2019-04-05T21:05:07.880Z,101677.67
2019-04-05T21:06:46.540Z,101674.07
2019-04-05T21:08:25.368Z,101674.14
2019-04-05T21:10:07.103Z,101681.37
2019-04-05T21:11:48.430Z,101684.02
2019-04-05T21:13:26.345Z,101685.53
2019-04-05T21:15:06.809Z,101677.18
2019-04-05T21:16:44.434Z,101671.47
2019-04-05T21:18:23.253Z,101674.05
2019-04-05T21:20:01.880Z,101674.38
2019-04-05T21:21:41.746Z,101673.52
2019-04-05T21:23:27.727Z,101680.70
2019-04-05T21:25:12.796Z,101678.05
2019-04-05T21:26:50.674Z,101677.59
2019-04-05T21:28:29.652Z,101677.42
2019-04-05T21:30:07.732Z,101676.02
2019-04-05T21:31:46.640Z,101681.39
2019-04-05T21:33:26.857Z,101683.98
2019-04-05T21:35:07.862Z,101683.58
2019-04-05T21:36:46.413Z,101683.28
2019-04-05T21:38:26.835Z,101682.33
2019-04-05T21:40:06.189Z,101688.35
2019-04-05T21:41:45.510Z,101687.34
2019-04-05T21:43:24.852Z,101689.55
2019-04-05T21:45:03.351Z,101684.22
2019-04-05T21:46:45.563Z,101686.48
2019-04-05T21:48:25.903Z,101680.33
2019-04-05T21:50:04.839Z,101680.66
2019-04-05T21:51:44.569Z,101685.86
2019-04-05T21:53:24.001Z,101685.31
2019-04-05T21:55:02.862Z,101683.05
2019-04-05T21:56:45.555Z,101691.38
2019-04-05T21:58:27.708Z,101686.39
2019-04-05T22:00:14.922Z,101693.88
2019-04-05T22:01:55.795Z,101690.75
2019-04-05T22:03:36.413Z,101688.59
2019-04-05T22:05:15.632Z,101686.01
2019-04-05T22:06:58.510Z,101690.84
2019-04-05T22:08:36.380Z,101695.52
2019-04-05T22:10:15.663Z,101695.34
2019-04-05T22:11:55.729Z,101696.91
2019-04-05T22:13:33.361Z,101694.32
2019-04-05T22:15:13.952Z,101698.39
2019-04-05T22:16:52.059Z,101695.74
2019-04-05T22:18:30.162Z,101697.37
2019-04-05T22:20:11.476Z,101697.51
2019-04-05T22:21:50.290Z,101701.09
2019-04-05T22:23:28.475Z,101696.36
2019-04-05T22:25:08.681Z,101695.03
2019-04-05T22:26:48.266Z,101692.44
2019-04-05T22:28:26.413Z,101695.91
2019-04-05T22:30:07.566Z,101694.89
2019-04-05T22:31:46.867Z,101696.68
2019-04-05T22:33:27.303Z,101699.77
2019-04-05T22:35:05.868Z,101693.84
2019-04-05T22:36:47.052Z,101698.22
2019-04-05T22:38:25.285Z,101695.58
2019-04-05T22:40:05.467Z,101692.84
2019-04-05T22:41:44.848Z,101692.37
2019-04-05T22:43:24.286Z,101695.14
2019-04-05T22:45:04.489Z,101696.25
2019-04-05T22:46:45.524Z,101690.48
2019-04-05T22:48:23.599Z,101698.02
2019-04-05T22:50:02.592Z,101687.37
2019-04-05T22:51:42.523Z,101697.17
2019-04-05T22:53:23.172Z,101690.96
2019-04-05T22:55:10.462Z,101691.43
2019-04-05T22:56:41.971Z,101696.91
2019-04-05T22:58:22.123Z,101699.30
2019-04-05T23:00:01.705Z,101695.88
2019-04-05T23:01:41.806Z,101696.94
2019-04-05T23:03:21.402Z,101703.82
2019-04-05T23:05:01.040Z,101697.41
2019-04-05T23:06:41.529Z,101701.44
2019-04-05T23:08:22.714Z,101696.55
2019-04-05T23:10:02.452Z,101700.91
2019-04-05T23:11:43.082Z,101701.29
2019-04-05T23:13:26.470Z,101700.88
2019-04-05T23:15:08.032Z,101700.41
2019-04-05T23:16:49.051Z,101700.80
2019-04-05T23:18:29.327Z,101708.67
2019-04-05T23:20:10.781Z,101703.29
2019-04-05T23:21:50.277Z,101713.91
2019-04-05T23:23:31.994Z,101712.58
2019-04-05T23:25:21.454Z,101705.58
2019-04-05T23:26:55.116Z,101703.02
2019-04-05T23:28:35.835Z,101722.80
2019-04-05T23:30:20.267Z,101727.90
2019-04-05T23:32:00.252Z,101715.42
2019-04-05T23:33:40.318Z,101720.52
2019-04-05T23:35:21.316Z,101710.69
2019-04-05T23:37:03.959Z,101720.52
2019-04-05T23:38:45.016Z,101712.66
2019-04-05T23:40:27.983Z,101713.88
2019-04-05T23:42:06.010Z,101712.84
2019-04-05T23:43:48.804Z,101703.91
2019-04-05T23:45:30.382Z,101705.47
2019-04-05T23:47:13.182Z,101711.05
2019-04-05T23:48:54.549Z,101707.94
2019-04-05T23:50:35.699Z,101709.67
2019-04-05T23:52:15.186Z,101714.02
2019-04-05T23:53:56.702Z,101707.28
2019-04-05T23:55:38.681Z,101710.34
2019-04-05T23:57:20.168Z,101717.87
2019-04-05T23:59:01.476Z,101708.23
